sensor_id;sensor_type;location;lat;lon;timestamp;P1;durP1;ratioP1;P2;durP2;ratioP2
11572;SDS011;5842;52.426;4.886;2023-03-08T00:01:49;4.67;;;2.20;;
11572;SDS011;5842;52.426;4.886;2023-03-08T00:04:16;3.47;;;2.03;;
11572;SDS011;5842;52.426;4.886;2023-03-08T00:06:43;5.43;;;2.27;;
11572;SDS011;5842;52.426;4.886;2023-03-08T00:09:11;6.50;;;2.30;;
11572;SDS011;5842;52.426;4.886;2023-03-08T00:11:38;4.90;;;2.10;;
11572;SDS011;5842;52.426;4.886;2023-03-08T00:14:06;5.97;;;1.97;;
11572;SDS011;5842;52.426;4.886;2023-03-08T00:16:35;3.30;;;1.70;;
11572;SDS011;5842;52.426;4.886;2023-03-08T00:19:02;4.00;;;1.77;;
11572;SDS011;5842;52.426;4.886;2023-03-08T00:21:30;6.30;;;2.03;;
11572;SDS011;5842;52.426;4.886;2023-03-08T00:23:57;4.07;;;2.10;;
11572;SDS011;5842;52.426;4.886;2023-03-08T00:26:24;5.47;;;2.40;;
11572;SDS011;5842;52.426;4.886;2023-03-08T00:28:52;4.53;;;2.47;;
11572;SDS011;5842;52.426;4.886;2023-03-08T00:31:19;7.33;;;2.73;;
11572;SDS011;5842;52.426;4.886;2023-03-08T00:33:48;5.87;;;2.60;;
11572;SDS011;5842;52.426;4.886;2023-03-08T00:36:18;4.53;;;2.00;;
11572;SDS011;5842;52.426;4.886;2023-03-08T00:38:46;5.60;;;2.33;;
11572;SDS011;5842;52.426;4.886;2023-03-08T00:41:15;4.67;;;1.80;;
11572;SDS011;5842;52.426;4.886;2023-03-08T00:43:42;5.80;;;2.00;;
11572;SDS011;5842;52.426;4.886;2023-03-08T00:46:09;4.80;;;1.97;;
11572;SDS011;5842;52.426;4.886;2023-03-08T00:48:37;6.33;;;1.90;;
11572;SDS011;5842;52.426;4.886;2023-03-08T00:51:06;2.90;;;1.60;;
11572;SDS011;5842;52.426;4.886;2023-03-08T00:53:34;2.20;;;1.60;;
11572;SDS011;5842;52.426;4.886;2023-03-08T00:56:01;7.13;;;2.00;;
11572;SDS011;5842;52.426;4.886;2023-03-08T00:58:29;3.73;;;2.00;;
11572;SDS011;5842;52.426;4.886;2023-03-08T01:00:56;3.33;;;2.00;;
11572;SDS011;5842;52.426;4.886;2023-03-08T01:03:24;5.90;;;2.13;;
11572;SDS011;5842;52.426;4.886;2023-03-08T01:05:52;6.67;;;2.80;;
11572;SDS011;5842;52.426;4.886;2023-03-08T01:08:24;5.93;;;2.33;;
11572;SDS011;5842;52.426;4.886;2023-03-08T01:10:52;7.23;;;2.37;;
11572;SDS011;5842;52.426;4.886;2023-03-08T01:13:21;4.40;;;2.00;;
11572;SDS011;5842;52.426;4.886;2023-03-08T01:15:50;5.63;;;2.00;;
11572;SDS011;5842;52.426;4.886;2023-03-08T01:18:17;4.27;;;2.40;;
11572;SDS011;5842;52.426;4.886;2023-03-08T01:20:53;5.23;;;2.10;;
11572;SDS011;5842;52.426;4.886;2023-03-08T01:23:22;6.90;;;2.20;;
11572;SDS011;5842;52.426;4.886;2023-03-08T01:25:56;5.80;;;2.50;;
11572;SDS011;5842;52.426;4.886;2023-03-08T01:28:23;5.73;;;2.30;;
11572;SDS011;5842;52.426;4.886;2023-03-08T01:30:51;6.13;;;2.80;;
11572;SDS011;5842;52.426;4.886;2023-03-08T01:33:18;5.13;;;2.53;;
11572;SDS011;5842;52.426;4.886;2023-03-08T01:35:46;5.33;;;2.53;;
11572;SDS011;5842;52.426;4.886;2023-03-08T01:38:14;4.53;;;2.60;;
11572;SDS011;5842;52.426;4.886;2023-03-08T01:40:44;7.70;;;2.60;;
11572;SDS011;5842;52.426;4.886;2023-03-08T01:43:21;5.70;;;2.70;;
11572;SDS011;5842;52.426;4.886;2023-03-08T01:48:34;4.87;;;2.50;;
11572;SDS011;5842;52.426;4.886;2023-03-08T01:51:04;4.10;;;2.30;;
11572;SDS011;5842;52.426;4.886;2023-03-08T01:53:32;3.93;;;2.57;;
11572;SDS011;5842;52.426;4.886;2023-03-08T01:56:03;4.20;;;2.30;;
11572;SDS011;5842;52.426;4.886;2023-03-08T01:58:32;8.60;;;2.90;;
11572;SDS011;5842;52.426;4.886;2023-03-08T02:01:00;6.13;;;3.00;;
11572;SDS011;5842;52.426;4.886;2023-03-08T02:03:27;4.97;;;2.87;;
11572;SDS011;5842;52.426;4.886;2023-03-08T02:05:54;6.27;;;2.70;;
11572;SDS011;5842;52.426;4.886;2023-03-08T02:08:22;4.30;;;2.77;;
11572;SDS011;5842;52.426;4.886;2023-03-08T02:10:49;5.03;;;2.90;;
11572;SDS011;5842;52.426;4.886;2023-03-08T02:13:18;3.87;;;2.70;;
11572;SDS011;5842;52.426;4.886;2023-03-08T02:15:46;4.80;;;2.93;;
11572;SDS011;5842;52.426;4.886;2023-03-08T02:18:14;4.30;;;2.83;;
11572;SDS011;5842;52.426;4.886;2023-03-08T02:20:41;4.10;;;2.57;;
11572;SDS011;5842;52.426;4.886;2023-03-08T02:23:12;5.43;;;2.83;;
11572;SDS011;5842;52.426;4.886;2023-03-08T02:25:40;3.73;;;2.77;;
11572;SDS011;5842;52.426;4.886;2023-03-08T02:28:09;6.27;;;3.20;;
11572;SDS011;5842;52.426;4.886;2023-03-08T02:30:37;4.50;;;3.00;;
11572;SDS011;5842;52.426;4.886;2023-03-08T02:33:04;3.97;;;2.60;;
11572;SDS011;5842;52.426;4.886;2023-03-08T02:35:31;6.07;;;3.00;;
11572;SDS011;5842;52.426;4.886;2023-03-08T02:37:59;6.60;;;3.10;;
11572;SDS011;5842;52.426;4.886;2023-03-08T02:40:28;5.80;;;3.60;;
11572;SDS011;5842;52.426;4.886;2023-03-08T02:42:55;6.80;;;3.53;;
11572;SDS011;5842;52.426;4.886;2023-03-08T02:45:26;6.70;;;3.50;;
11572;SDS011;5842;52.426;4.886;2023-03-08T02:47:54;5.47;;;3.40;;
11572;SDS011;5842;52.426;4.886;2023-03-08T02:50:21;5.47;;;3.60;;
11572;SDS011;5842;52.426;4.886;2023-03-08T02:52:49;4.27;;;3.13;;
11572;SDS011;5842;52.426;4.886;2023-03-08T02:55:16;5.00;;;3.80;;
11572;SDS011;5842;52.426;4.886;2023-03-08T02:57:46;6.13;;;3.40;;
11572;SDS011;5842;52.426;4.886;2023-03-08T03:00:14;4.73;;;3.60;;
11572;SDS011;5842;52.426;4.886;2023-03-08T03:02:41;7.60;;;4.03;;
11572;SDS011;5842;52.426;4.886;2023-03-08T03:05:09;7.93;;;3.77;;
11572;SDS011;5842;52.426;4.886;2023-03-08T03:07:37;7.07;;;3.93;;
11572;SDS011;5842;52.426;4.886;2023-03-08T03:10:06;8.00;;;4.00;;
11572;SDS011;5842;52.426;4.886;2023-03-08T03:12:34;7.87;;;4.17;;
11572;SDS011;5842;52.426;4.886;2023-03-08T03:15:03;10.93;;;4.87;;
11572;SDS011;5842;52.426;4.886;2023-03-08T03:17:31;6.67;;;4.23;;
11572;SDS011;5842;52.426;4.886;2023-03-08T03:19:58;6.63;;;4.40;;
11572;SDS011;5842;52.426;4.886;2023-03-08T03:22:26;11.70;;;4.97;;
11572;SDS011;5842;52.426;4.886;2023-03-08T03:24:54;7.03;;;4.57;;
11572;SDS011;5842;52.426;4.886;2023-03-08T03:27:21;9.30;;;4.73;;
11572;SDS011;5842;52.426;4.886;2023-03-08T03:29:49;8.90;;;4.60;;
11572;SDS011;5842;52.426;4.886;2023-03-08T03:32:18;6.23;;;4.40;;
11572;SDS011;5842;52.426;4.886;2023-03-08T03:34:46;8.03;;;4.33;;
11572;SDS011;5842;52.426;4.886;2023-03-08T03:37:14;7.07;;;4.03;;
11572;SDS011;5842;52.426;4.886;2023-03-08T03:39:41;6.00;;;4.27;;
11572;SDS011;5842;52.426;4.886;2023-03-08T03:42:08;8.63;;;4.87;;
11572;SDS011;5842;52.426;4.886;2023-03-08T03:44:36;9.07;;;5.00;;
11572;SDS011;5842;52.426;4.886;2023-03-08T03:47:06;10.10;;;5.60;;
11572;SDS011;5842;52.426;4.886;2023-03-08T03:49:35;13.97;;;5.40;;
11572;SDS011;5842;52.426;4.886;2023-03-08T03:52:03;11.93;;;6.70;;
11572;SDS011;5842;52.426;4.886;2023-03-08T03:54:30;10.60;;;6.40;;
11572;SDS011;5842;52.426;4.886;2023-03-08T03:56:58;11.20;;;6.83;;
11572;SDS011;5842;52.426;4.886;2023-03-08T03:59:25;10.17;;;6.53;;
11572;SDS011;5842;52.426;4.886;2023-03-08T04:01:52;10.53;;;7.40;;
11572;SDS011;5842;52.426;4.886;2023-03-08T04:04:20;12.17;;;7.73;;
11572;SDS011;5842;52.426;4.886;2023-03-08T04:06:49;19.27;;;13.98;;
11572;SDS011;5842;52.426;4.886;2023-03-08T04:09:17;15.07;;;9.70;;
11572;SDS011;5842;52.426;4.886;2023-03-08T04:11:47;11.43;;;8.93;;
11572;SDS011;5842;52.426;4.886;2023-03-08T04:14:14;13.67;;;9.30;;
11572;SDS011;5842;52.426;4.886;2023-03-08T04:16:42;11.37;;;8.57;;
11572;SDS011;5842;52.426;4.886;2023-03-08T04:19:10;12.27;;;8.70;;
11572;SDS011;5842;52.426;4.886;2023-03-08T04:21:38;12.80;;;8.20;;
11572;SDS011;5842;52.426;4.886;2023-03-08T04:24:07;10.57;;;8.27;;
11572;SDS011;5842;52.426;4.886;2023-03-08T04:26:35;11.07;;;8.30;;
11572;SDS011;5842;52.426;4.886;2023-03-08T04:29:03;12.20;;;8.60;;
11572;SDS011;5842;52.426;4.886;2023-03-08T04:31:31;12.07;;;8.30;;
11572;SDS011;5842;52.426;4.886;2023-03-08T04:34:01;10.57;;;8.17;;
11572;SDS011;5842;52.426;4.886;2023-03-08T04:36:29;12.97;;;8.77;;
11572;SDS011;5842;52.426;4.886;2023-03-08T04:38:56;12.87;;;8.47;;
11572;SDS011;5842;52.426;4.886;2023-03-08T04:41:25;12.53;;;8.90;;
11572;SDS011;5842;52.426;4.886;2023-03-08T04:43:53;13.27;;;9.17;;
11572;SDS011;5842;52.426;4.886;2023-03-08T04:46:22;17.63;;;14.00;;
11572;SDS011;5842;52.426;4.886;2023-03-08T04:48:49;12.17;;;9.97;;
11572;SDS011;5842;52.426;4.886;2023-03-08T04:51:19;12.83;;;9.43;;
11572;SDS011;5842;52.426;4.886;2023-03-08T04:53:47;13.30;;;9.90;;
11572;SDS011;5842;52.426;4.886;2023-03-08T04:56:15;15.43;;;10.17;;
11572;SDS011;5842;52.426;4.886;2023-03-08T04:58:44;12.57;;;9.40;;
11572;SDS011;5842;52.426;4.886;2023-03-08T05:01:13;12.67;;;10.20;;
11572;SDS011;5842;52.426;4.886;2023-03-08T05:03:41;13.43;;;10.00;;
11572;SDS011;5842;52.426;4.886;2023-03-08T05:06:08;13.60;;;10.80;;
11572;SDS011;5842;52.426;4.886;2023-03-08T05:08:37;15.30;;;10.10;;
11572;SDS011;5842;52.426;4.886;2023-03-08T05:11:04;19.10;;;10.93;;
11572;SDS011;5842;52.426;4.886;2023-03-08T05:13:33;15.73;;;10.40;;
11572;SDS011;5842;52.426;4.886;2023-03-08T05:16:05;14.03;;;10.67;;
11572;SDS011;5842;52.426;4.886;2023-03-08T05:18:34;18.77;;;12.70;;
11572;SDS011;5842;52.426;4.886;2023-03-08T05:21:02;17.40;;;12.63;;
11572;SDS011;5842;52.426;4.886;2023-03-08T05:23:31;24.93;;;15.47;;
11572;SDS011;5842;52.426;4.886;2023-03-08T05:25:59;20.50;;;14.53;;
11572;SDS011;5842;52.426;4.886;2023-03-08T05:28:27;29.47;;;19.00;;
11572;SDS011;5842;52.426;4.886;2023-03-08T05:31:01;26.90;;;16.77;;
11572;SDS011;5842;52.426;4.886;2023-03-08T05:33:32;24.60;;;15.93;;
11572;SDS011;5842;52.426;4.886;2023-03-08T05:35:59;21.17;;;13.53;;
11572;SDS011;5842;52.426;4.886;2023-03-08T05:38:27;19.53;;;13.60;;
11572;SDS011;5842;52.426;4.886;2023-03-08T05:40:58;19.87;;;13.33;;
11572;SDS011;5842;52.426;4.886;2023-03-08T05:43:26;18.03;;;13.47;;
11572;SDS011;5842;52.426;4.886;2023-03-08T05:45:54;19.53;;;14.67;;
11572;SDS011;5842;52.426;4.886;2023-03-08T05:48:23;19.63;;;14.17;;
11572;SDS011;5842;52.426;4.886;2023-03-08T05:50:52;24.10;;;14.87;;
11572;SDS011;5842;52.426;4.886;2023-03-08T05:53:20;19.87;;;14.93;;
11572;SDS011;5842;52.426;4.886;2023-03-08T05:55:47;19.70;;;15.60;;
11572;SDS011;5842;52.426;4.886;2023-03-08T05:58:15;22.87;;;15.43;;
11572;SDS011;5842;52.426;4.886;2023-03-08T06:00:42;22.33;;;15.77;;
11572;SDS011;5842;52.426;4.886;2023-03-08T06:03:10;23.13;;;16.33;;
11572;SDS011;5842;52.426;4.886;2023-03-08T06:05:37;23.43;;;16.70;;
11572;SDS011;5842;52.426;4.886;2023-03-08T06:08:06;22.20;;;16.43;;
11572;SDS011;5842;52.426;4.886;2023-03-08T06:10:34;23.60;;;17.83;;
11572;SDS011;5842;52.426;4.886;2023-03-08T06:13:04;23.40;;;17.70;;
11572;SDS011;5842;52.426;4.886;2023-03-08T06:15:31;27.03;;;19.00;;
11572;SDS011;5842;52.426;4.886;2023-03-08T06:17:59;28.63;;;19.83;;
11572;SDS011;5842;52.426;4.886;2023-03-08T06:20:26;26.67;;;20.20;;
11572;SDS011;5842;52.426;4.886;2023-03-08T06:22:53;28.30;;;20.57;;
11572;SDS011;5842;52.426;4.886;2023-03-08T06:25:22;32.90;;;20.57;;
11572;SDS011;5842;52.426;4.886;2023-03-08T06:27:50;30.67;;;20.10;;
11572;SDS011;5842;52.426;4.886;2023-03-08T06:30:17;28.63;;;18.83;;
11572;SDS011;5842;52.426;4.886;2023-03-08T06:32:45;27.63;;;19.13;;
11572;SDS011;5842;52.426;4.886;2023-03-08T06:35:12;26.23;;;18.67;;
11572;SDS011;5842;52.426;4.886;2023-03-08T06:37:39;26.63;;;19.40;;
11572;SDS011;5842;52.426;4.886;2023-03-08T06:40:07;28.40;;;20.23;;
11572;SDS011;5842;52.426;4.886;2023-03-08T06:42:37;30.70;;;20.27;;
11572;SDS011;5842;52.426;4.886;2023-03-08T06:45:05;33.30;;;21.93;;
11572;SDS011;5842;52.426;4.886;2023-03-08T06:47:33;34.43;;;23.10;;
11572;SDS011;5842;52.426;4.886;2023-03-08T06:50:00;32.37;;;21.73;;
11572;SDS011;5842;52.426;4.886;2023-03-08T06:52:28;33.80;;;23.00;;
11572;SDS011;5842;52.426;4.886;2023-03-08T06:55:01;33.23;;;22.57;;
11572;SDS011;5842;52.426;4.886;2023-03-08T06:57:28;38.30;;;24.23;;
11572;SDS011;5842;52.426;4.886;2023-03-08T06:59:57;36.60;;;23.30;;
11572;SDS011;5842;52.426;4.886;2023-03-08T07:02:25;34.30;;;23.77;;
11572;SDS011;5842;52.426;4.886;2023-03-08T07:04:52;33.97;;;23.00;;
11572;SDS011;5842;52.426;4.886;2023-03-08T07:07:20;38.27;;;24.80;;
11572;SDS011;5842;52.426;4.886;2023-03-08T07:09:48;42.40;;;25.37;;
11572;SDS011;5842;52.426;4.886;2023-03-08T07:12:15;32.07;;;23.57;;
11572;SDS011;5842;52.426;4.886;2023-03-08T07:14:42;35.60;;;25.00;;
11572;SDS011;5842;52.426;4.886;2023-03-08T07:17:12;36.57;;;25.20;;
11572;SDS011;5842;52.426;4.886;2023-03-08T07:19:39;33.40;;;24.17;;
11572;SDS011;5842;52.426;4.886;2023-03-08T07:38:14;47.20;;;38.72;;
11572;SDS011;5842;52.426;4.886;2023-03-08T07:40:42;45.92;;;37.05;;
11572;SDS011;5842;52.426;4.886;2023-03-08T07:43:09;42.50;;;31.50;;
11572;SDS011;5842;52.426;4.886;2023-03-08T07:45:38;40.00;;;29.73;;
11572;SDS011;5842;52.426;4.886;2023-03-08T07:48:06;37.90;;;26.97;;
11572;SDS011;5842;52.426;4.886;2023-03-08T07:50:33;34.63;;;26.60;;
11572;SDS011;5842;52.426;4.886;2023-03-08T07:53:00;32.93;;;25.63;;
11572;SDS011;5842;52.426;4.886;2023-03-08T07:55:30;33.47;;;25.20;;
11572;SDS011;5842;52.426;4.886;2023-03-08T07:57:57;32.40;;;24.10;;
11572;SDS011;5842;52.426;4.886;2023-03-08T08:00:25;29.93;;;22.70;;
11572;SDS011;5842;52.426;4.886;2023-03-08T08:02:52;30.60;;;22.27;;
11572;SDS011;5842;52.426;4.886;2023-03-08T08:05:20;31.07;;;22.10;;
11572;SDS011;5842;52.426;4.886;2023-03-08T08:07:47;25.93;;;19.63;;
11572;SDS011;5842;52.426;4.886;2023-03-08T08:10:15;25.57;;;19.20;;
11572;SDS011;5842;52.426;4.886;2023-03-08T08:12:44;22.33;;;17.93;;
11572;SDS011;5842;52.426;4.886;2023-03-08T08:15:12;20.53;;;16.97;;
11572;SDS011;5842;52.426;4.886;2023-03-08T08:17:40;21.40;;;16.70;;
11572;SDS011;5842;52.426;4.886;2023-03-08T08:20:08;22.37;;;16.77;;
11572;SDS011;5842;52.426;4.886;2023-03-08T08:22:35;20.93;;;16.03;;
11572;SDS011;5842;52.426;4.886;2023-03-08T08:25:03;20.17;;;16.00;;
11572;SDS011;5842;52.426;4.886;2023-03-08T08:27:31;19.53;;;15.63;;
11572;SDS011;5842;52.426;4.886;2023-03-08T08:30:00;20.17;;;15.77;;
11572;SDS011;5842;52.426;4.886;2023-03-08T08:32:28;19.17;;;15.87;;
11572;SDS011;5842;52.426;4.886;2023-03-08T08:34:55;19.23;;;15.17;;
11572;SDS011;5842;52.426;4.886;2023-03-08T08:37:23;18.43;;;15.20;;
11572;SDS011;5842;52.426;4.886;2023-03-08T08:39:50;19.53;;;15.17;;
11572;SDS011;5842;52.426;4.886;2023-03-08T08:42:18;16.93;;;14.87;;
11572;SDS011;5842;52.426;4.886;2023-03-08T08:44:45;18.13;;;14.33;;
11572;SDS011;5842;52.426;4.886;2023-03-08T08:47:15;16.40;;;13.13;;
11572;SDS011;5842;52.426;4.886;2023-03-08T08:49:44;17.23;;;13.00;;
11572;SDS011;5842;52.426;4.886;2023-03-08T08:52:12;15.87;;;13.33;;
11572;SDS011;5842;52.426;4.886;2023-03-08T08:54:40;18.70;;;13.23;;
11572;SDS011;5842;52.426;4.886;2023-03-08T08:57:07;15.57;;;12.10;;
11572;SDS011;5842;52.426;4.886;2023-03-08T08:59:35;13.40;;;11.27;;
11572;SDS011;5842;52.426;4.886;2023-03-08T09:02:02;13.80;;;11.73;;
11572;SDS011;5842;52.426;4.886;2023-03-08T09:04:31;13.30;;;10.77;;
11572;SDS011;5842;52.426;4.886;2023-03-08T09:06:59;13.83;;;9.37;;
11572;SDS011;5842;52.426;4.886;2023-03-08T09:09:26;10.50;;;8.47;;
11572;SDS011;5842;52.426;4.886;2023-03-08T09:11:54;10.60;;;8.60;;
11572;SDS011;5842;52.426;4.886;2023-03-08T09:14:21;10.73;;;8.13;;
11572;SDS011;5842;52.426;4.886;2023-03-08T09:16:49;9.77;;;7.73;;
11572;SDS011;5842;52.426;4.886;2023-03-08T09:19:17;10.33;;;7.83;;
11572;SDS011;5842;52.426;4.886;2023-03-08T09:21:46;9.87;;;7.30;;
11572;SDS011;5842;52.426;4.886;2023-03-08T09:24:14;12.50;;;7.97;;
11572;SDS011;5842;52.426;4.886;2023-03-08T09:26:41;12.17;;;7.97;;
11572;SDS011;5842;52.426;4.886;2023-03-08T09:29:09;9.40;;;7.80;;
11572;SDS011;5842;52.426;4.886;2023-03-08T09:31:37;10.80;;;8.07;;
11572;SDS011;5842;52.426;4.886;2023-03-08T09:34:06;7.90;;;6.80;;
11572;SDS011;5842;52.426;4.886;2023-03-08T09:36:34;11.90;;;7.63;;
11572;SDS011;5842;52.426;4.886;2023-03-08T09:39:04;8.03;;;6.63;;
11572;SDS011;5842;52.426;4.886;2023-03-08T09:41:36;8.57;;;6.30;;
11572;SDS011;5842;52.426;4.886;2023-03-08T09:44:10;8.37;;;6.53;;
11572;SDS011;5842;52.426;4.886;2023-03-08T09:46:39;9.87;;;6.00;;
11572;SDS011;5842;52.426;4.886;2023-03-08T09:49:11;8.50;;;5.47;;
11572;SDS011;5842;52.426;4.886;2023-03-08T09:51:41;6.33;;;4.50;;
11572;SDS011;5842;52.426;4.886;2023-03-08T09:54:13;6.27;;;4.33;;
11572;SDS011;5842;52.426;4.886;2023-03-08T09:56:42;5.63;;;3.37;;
11572;SDS011;5842;52.426;4.886;2023-03-08T09:59:12;9.47;;;4.23;;
11572;SDS011;5842;52.426;4.886;2023-03-08T10:01:43;5.47;;;4.30;;
11572;SDS011;5842;52.426;4.886;2023-03-08T10:04:18;7.47;;;4.83;;
11572;SDS011;5842;52.426;4.886;2023-03-08T10:06:51;7.80;;;5.20;;
11572;SDS011;5842;52.426;4.886;2023-03-08T10:09:28;7.03;;;5.07;;
11572;SDS011;5842;52.426;4.886;2023-03-08T10:12:00;7.17;;;5.63;;
11572;SDS011;5842;52.426;4.886;2023-03-08T10:14:29;10.03;;;6.60;;
11572;SDS011;5842;52.426;4.886;2023-03-08T10:16:59;9.13;;;7.30;;
11572;SDS011;5842;52.426;4.886;2023-03-08T10:19:30;13.73;;;7.60;;
11572;SDS011;5842;52.426;4.886;2023-03-08T10:21:59;12.30;;;7.33;;
11572;SDS011;5842;52.426;4.886;2023-03-08T10:24:33;10.60;;;7.93;;
11572;SDS011;5842;52.426;4.886;2023-03-08T10:27:17;13.47;;;9.53;;
11572;SDS011;5842;52.426;4.886;2023-03-08T10:29:49;14.30;;;9.57;;
11572;SDS011;5842;52.426;4.886;2023-03-08T10:32:17;14.97;;;9.70;;
11572;SDS011;5842;52.426;4.886;2023-03-08T10:34:44;17.43;;;10.83;;
11572;SDS011;5842;52.426;4.886;2023-03-08T10:37:12;15.17;;;10.83;;
11572;SDS011;5842;52.426;4.886;2023-03-08T10:39:48;15.23;;;11.73;;
11572;SDS011;5842;52.426;4.886;2023-03-08T10:42:18;16.33;;;12.00;;
11572;SDS011;5842;52.426;4.886;2023-03-08T10:44:51;17.23;;;11.77;;
11572;SDS011;5842;52.426;4.886;2023-03-08T10:47:20;17.10;;;12.43;;
11572;SDS011;5842;52.426;4.886;2023-03-08T10:49:48;18.23;;;12.77;;
11572;SDS011;5842;52.426;4.886;2023-03-08T10:52:19;21.27;;;14.47;;
11572;SDS011;5842;52.426;4.886;2023-03-08T10:55:00;21.33;;;14.33;;
11572;SDS011;5842;52.426;4.886;2023-03-08T10:57:28;20.10;;;13.37;;
11572;SDS011;5842;52.426;4.886;2023-03-08T10:59:56;19.47;;;13.33;;
11572;SDS011;5842;52.426;4.886;2023-03-08T11:02:29;19.17;;;13.50;;
11572;SDS011;5842;52.426;4.886;2023-03-08T11:04:57;19.07;;;13.50;;
11572;SDS011;5842;52.426;4.886;2023-03-08T11:07:25;19.63;;;13.70;;
11572;SDS011;5842;52.426;4.886;2023-03-08T11:10:08;20.20;;;13.73;;
11572;SDS011;5842;52.426;4.886;2023-03-08T11:12:40;18.30;;;13.10;;
11572;SDS011;5842;52.426;4.886;2023-03-08T11:15:11;18.60;;;13.27;;
11572;SDS011;5842;52.426;4.886;2023-03-08T11:17:38;18.10;;;12.53;;
11572;SDS011;5842;52.426;4.886;2023-03-08T11:20:11;19.57;;;12.97;;
11572;SDS011;5842;52.426;4.886;2023-03-08T11:22:46;18.40;;;13.03;;
11572;SDS011;5842;52.426;4.886;2023-03-08T11:25:20;20.27;;;13.83;;
11572;SDS011;5842;52.426;4.886;2023-03-08T11:27:56;18.37;;;13.30;;
11572;SDS011;5842;52.426;4.886;2023-03-08T11:30:29;17.47;;;13.00;;
11572;SDS011;5842;52.426;4.886;2023-03-08T11:33:06;17.77;;;12.43;;
11572;SDS011;5842;52.426;4.886;2023-03-08T11:35:41;18.20;;;12.47;;
11572;SDS011;5842;52.426;4.886;2023-03-08T11:38:11;18.50;;;12.90;;
11572;SDS011;5842;52.426;4.886;2023-03-08T11:40:47;19.83;;;13.37;;
11572;SDS011;5842;52.426;4.886;2023-03-08T11:43:22;18.03;;;12.23;;
11572;SDS011;5842;52.426;4.886;2023-03-08T11:45:54;16.03;;;12.20;;
11572;SDS011;5842;52.426;4.886;2023-03-08T11:48:31;16.57;;;12.00;;
11572;SDS011;5842;52.426;4.886;2023-03-08T11:51:03;16.87;;;12.13;;
11572;SDS011;5842;52.426;4.886;2023-03-08T11:53:36;16.10;;;12.17;;
11572;SDS011;5842;52.426;4.886;2023-03-08T11:56:12;16.87;;;11.40;;
11572;SDS011;5842;52.426;4.886;2023-03-08T11:58:43;17.43;;;12.97;;
11572;SDS011;5842;52.426;4.886;2023-03-08T12:01:13;16.13;;;11.50;;
11572;SDS011;5842;52.426;4.886;2023-03-08T12:03:42;13.97;;;11.00;;
11572;SDS011;5842;52.426;4.886;2023-03-08T12:06:11;18.10;;;11.73;;
11572;SDS011;5842;52.426;4.886;2023-03-08T12:08:40;15.67;;;10.87;;
11572;SDS011;5842;52.426;4.886;2023-03-08T12:11:12;14.37;;;10.77;;
11572;SDS011;5842;52.426;4.886;2023-03-08T12:13:43;16.60;;;11.30;;
11572;SDS011;5842;52.426;4.886;2023-03-08T12:16:14;15.30;;;10.90;;
11572;SDS011;5842;52.426;4.886;2023-03-08T12:18:44;16.63;;;11.27;;
11572;SDS011;5842;52.426;4.886;2023-03-08T12:21:21;13.90;;;10.13;;
11572;SDS011;5842;52.426;4.886;2023-03-08T12:23:53;16.70;;;10.23;;
11572;SDS011;5842;52.426;4.886;2023-03-08T12:26:24;14.93;;;9.60;;
11572;SDS011;5842;52.426;4.886;2023-03-08T12:28:55;14.97;;;8.97;;
11572;SDS011;5842;52.426;4.886;2023-03-08T12:31:25;15.10;;;9.70;;
11572;SDS011;5842;52.426;4.886;2023-03-08T12:33:53;15.80;;;9.60;;
11572;SDS011;5842;52.426;4.886;2023-03-08T12:36:21;15.20;;;9.73;;
11572;SDS011;5842;52.426;4.886;2023-03-08T12:39:04;13.73;;;9.60;;
11572;SDS011;5842;52.426;4.886;2023-03-08T12:41:34;17.20;;;10.00;;
11572;SDS011;5842;52.426;4.886;2023-03-08T12:44:02;14.87;;;9.17;;
11572;SDS011;5842;52.426;4.886;2023-03-08T12:46:46;14.87;;;9.30;;
11572;SDS011;5842;52.426;4.886;2023-03-08T12:49:18;13.67;;;8.70;;
11572;SDS011;5842;52.426;4.886;2023-03-08T12:51:54;18.83;;;9.90;;
11572;SDS011;5842;52.426;4.886;2023-03-08T12:54:22;13.47;;;8.67;;
11572;SDS011;5842;52.426;4.886;2023-03-08T12:56:51;13.93;;;9.67;;
11572;SDS011;5842;52.426;4.886;2023-03-08T12:59:25;16.23;;;10.67;;
11572;SDS011;5842;52.426;4.886;2023-03-08T13:02:01;15.67;;;10.70;;
11572;SDS011;5842;52.426;4.886;2023-03-08T13:04:33;16.27;;;10.03;;
11572;SDS011;5842;52.426;4.886;2023-03-08T13:09:54;17.13;;;10.40;;
11572;SDS011;5842;52.426;4.886;2023-03-08T13:12:29;17.13;;;9.80;;
11572;SDS011;5842;52.426;4.886;2023-03-08T13:15:05;15.13;;;9.50;;
11572;SDS011;5842;52.426;4.886;2023-03-08T13:17:35;12.83;;;8.43;;
11572;SDS011;5842;52.426;4.886;2023-03-08T13:20:08;15.73;;;9.17;;
11572;SDS011;5842;52.426;4.886;2023-03-08T13:22:39;16.30;;;9.47;;
11572;SDS011;5842;52.426;4.886;2023-03-08T13:25:08;15.40;;;8.83;;
11572;SDS011;5842;52.426;4.886;2023-03-08T13:27:44;15.00;;;8.30;;
11572;SDS011;5842;52.426;4.886;2023-03-08T13:30:20;13.00;;;8.50;;
11572;SDS011;5842;52.426;4.886;2023-03-08T13:32:49;13.83;;;8.23;;
11572;SDS011;5842;52.426;4.886;2023-03-08T13:35:17;13.37;;;8.23;;
11572;SDS011;5842;52.426;4.886;2023-03-08T13:37:50;11.77;;;7.50;;
11572;SDS011;5842;52.426;4.886;2023-03-08T13:40:18;15.57;;;8.10;;
11572;SDS011;5842;52.426;4.886;2023-03-08T13:42:54;12.80;;;7.47;;
11572;SDS011;5842;52.426;4.886;2023-03-08T13:45:22;12.63;;;7.93;;
11572;SDS011;5842;52.426;4.886;2023-03-08T13:47:49;13.40;;;7.60;;
11572;SDS011;5842;52.426;4.886;2023-03-08T13:50:19;11.73;;;7.30;;
11572;SDS011;5842;52.426;4.886;2023-03-08T13:52:46;12.07;;;7.00;;
11572;SDS011;5842;52.426;4.886;2023-03-08T13:55:17;11.50;;;6.63;;
11572;SDS011;5842;52.426;4.886;2023-03-08T13:57:46;12.80;;;6.67;;
11572;SDS011;5842;52.426;4.886;2023-03-08T14:00:21;12.60;;;7.07;;
11572;SDS011;5842;52.426;4.886;2023-03-08T14:02:49;13.17;;;7.47;;
11572;SDS011;5842;52.426;4.886;2023-03-08T14:05:19;14.60;;;7.70;;
11572;SDS011;5842;52.426;4.886;2023-03-08T14:07:57;13.63;;;7.97;;
11572;SDS011;5842;52.426;4.886;2023-03-08T14:10:28;14.00;;;7.90;;
11572;SDS011;5842;52.426;4.886;2023-03-08T14:12:56;12.63;;;7.77;;
11572;SDS011;5842;52.426;4.886;2023-03-08T14:15:26;11.43;;;7.03;;
11572;SDS011;5842;52.426;4.886;2023-03-08T14:17:54;12.40;;;7.30;;
11572;SDS011;5842;52.426;4.886;2023-03-08T14:20:24;12.77;;;7.43;;
11572;SDS011;5842;52.426;4.886;2023-03-08T14:22:53;12.63;;;7.23;;
11572;SDS011;5842;52.426;4.886;2023-03-08T14:25:22;12.10;;;7.10;;
11572;SDS011;5842;52.426;4.886;2023-03-08T14:27:50;11.53;;;7.20;;
11572;SDS011;5842;52.426;4.886;2023-03-08T14:30:18;11.67;;;6.60;;
11572;SDS011;5842;52.426;4.886;2023-03-08T14:35:34;12.17;;;6.63;;
11572;SDS011;5842;52.426;4.886;2023-03-08T14:38:02;12.33;;;6.53;;
11572;SDS011;5842;52.426;4.886;2023-03-08T14:40:30;12.97;;;6.63;;
11572;SDS011;5842;52.426;4.886;2023-03-08T14:42:59;9.87;;;6.00;;
11572;SDS011;5842;52.426;4.886;2023-03-08T14:45:30;10.27;;;6.40;;
11572;SDS011;5842;52.426;4.886;2023-03-08T14:47:58;11.83;;;7.70;;
11572;SDS011;5842;52.426;4.886;2023-03-08T14:50:27;11.57;;;6.83;;
11572;SDS011;5842;52.426;4.886;2023-03-08T14:52:57;12.20;;;7.30;;
11572;SDS011;5842;52.426;4.886;2023-03-08T14:55:26;11.37;;;7.03;;
11572;SDS011;5842;52.426;4.886;2023-03-08T14:57:54;11.30;;;7.63;;
11572;SDS011;5842;52.426;4.886;2023-03-08T15:00:23;16.27;;;8.03;;
11572;SDS011;5842;52.426;4.886;2023-03-08T15:02:53;12.53;;;7.93;;
11572;SDS011;5842;52.426;4.886;2023-03-08T15:05:21;13.80;;;7.87;;
11572;SDS011;5842;52.426;4.886;2023-03-08T15:07:49;13.47;;;8.03;;
11572;SDS011;5842;52.426;4.886;2023-03-08T15:10:20;14.67;;;7.60;;
11572;SDS011;5842;52.426;4.886;2023-03-08T15:12:48;11.83;;;7.50;;
11572;SDS011;5842;52.426;4.886;2023-03-08T15:15:16;14.53;;;7.10;;
11572;SDS011;5842;52.426;4.886;2023-03-08T15:17:43;11.73;;;6.70;;
11572;SDS011;5842;52.426;4.886;2023-03-08T15:20:11;8.90;;;5.40;;
11572;SDS011;5842;52.426;4.886;2023-03-08T15:22:40;9.83;;;5.67;;